createdAt,value
2019-03-03T00:00:42.662Z,100659.28
2019-03-03T00:03:13.615Z,100660.13
2019-03-03T00:05:44.788Z,100667.42
2019-03-03T00:08:15.999Z,100662.27
2019-03-03T00:10:47.427Z,100647.68
2019-03-03T00:13:18.038Z,100644.17
2019-03-03T00:15:49.190Z,100641.28
2019-03-03T00:18:20.074Z,100638.44
2019-03-03T00:20:52.406Z,100631.77
2019-03-03T00:23:23.768Z,100622.17
2019-03-03T00:25:55.500Z,100619.09
2019-03-03T00:28:26.799Z,100614.47
2019-03-03T00:30:57.959Z,100618.83
2019-03-03T00:33:29.028Z,100615.14
2019-03-03T00:36:00.186Z,100618.95
2019-03-03T00:38:32.632Z,100629.81
2019-03-03T00:41:04.954Z,100621.98
2019-03-03T00:43:37.850Z,100618.56
2019-03-03T00:46:10.709Z,100620.66
2019-03-03T00:48:43.498Z,100616.42
2019-03-03T00:51:15.934Z,100609.98
2019-03-03T00:53:46.417Z,100617.91
2019-03-03T00:56:18.897Z,100613.94
2019-03-03T00:58:51.154Z,100615.72
2019-03-03T01:01:23.820Z,100613.77
2019-03-03T01:03:57.331Z,100615.49
2019-03-03T01:06:29.719Z,100614.30
2019-03-03T01:09:02.113Z,100609.66
2019-03-03T01:11:36.616Z,100603.45
2019-03-03T01:14:09.030Z,100607.72
2019-03-03T01:16:41.447Z,100603.53
2019-03-03T01:19:14.156Z,100599.00
2019-03-03T01:21:47.145Z,100598.44
2019-03-03T01:24:19.552Z,100602.38
2019-03-03T01:26:51.194Z,100603.27
2019-03-03T01:29:22.020Z,100599.36
2019-03-03T01:31:53.908Z,100599.97
2019-03-03T01:34:25.068Z,100597.91
2019-03-03T01:36:56.369Z,100594.49
2019-03-03T01:39:27.172Z,100587.50
2019-03-03T01:41:58.166Z,100580.21
2019-03-03T01:44:29.233Z,100572.16
2019-03-03T01:47:00.032Z,100572.37
2019-03-03T01:49:30.898Z,100561.88
2019-03-03T01:52:02.137Z,100559.66
2019-03-03T01:54:32.897Z,100567.45
2019-03-03T01:57:03.737Z,100564.03
2019-03-03T01:59:36.194Z,100568.32
2019-03-03T02:02:07.194Z,100571.36
2019-03-03T02:04:38.362Z,100564.30
2019-03-03T02:07:10.518Z,100564.20
2019-03-03T02:09:41.839Z,100567.20
2019-03-03T02:12:13.740Z,100558.62
2019-03-03T02:14:47.283Z,100562.14
2019-03-03T02:17:18.297Z,100557.16
2019-03-03T02:19:49.734Z,100549.84
2019-03-03T02:22:20.745Z,100548.74
2019-03-03T02:24:51.853Z,100534.52
2019-03-03T02:27:23.215Z,100531.61
2019-03-03T02:29:55.965Z,100526.97
2019-03-03T02:32:27.168Z,100526.19
2019-03-03T02:34:58.809Z,100523.36
2019-03-03T02:37:30.111Z,100522.15
2019-03-03T02:40:00.990Z,100521.17
2019-03-03T02:42:32.158Z,100519.27
2019-03-03T02:45:03.186Z,100517.24
2019-03-03T02:47:34.267Z,100516.14
2019-03-03T02:50:08.562Z,100506.75
2019-03-03T02:52:39.575Z,100508.24
2019-03-03T02:55:13.117Z,100505.37
2019-03-03T02:57:44.446Z,100504.48
2019-03-03T03:00:18.606Z,100504.55
2019-03-03T03:02:50.706Z,100501.42
2019-03-03T03:05:26.108Z,100491.97
2019-03-03T03:07:58.927Z,100496.20
2019-03-03T03:10:31.305Z,100496.92
2019-03-03T03:13:05.446Z,100491.94
2019-03-03T03:15:40.542Z,100481.98
2019-03-03T03:18:12.972Z,100484.20
2019-03-03T03:20:45.544Z,100482.05
2019-03-03T03:23:17.981Z,100472.75
2019-03-03T03:25:50.232Z,100466.03
2019-03-03T03:28:21.095Z,100475.49
2019-03-03T03:30:53.529Z,100473.64
2019-03-03T03:33:25.930Z,100459.89
2019-03-03T03:35:58.253Z,100465.53
2019-03-03T03:38:30.366Z,100471.37
2019-03-03T03:41:03.003Z,100462.91
2019-03-03T03:43:35.487Z,100474.82
2019-03-03T03:46:07.576Z,100461.06
2019-03-03T03:48:40.241Z,100446.02
2019-03-03T03:51:12.910Z,100447.53
2019-03-03T03:53:45.405Z,100431.70
2019-03-03T03:56:17.794Z,100427.84
2019-03-03T03:58:50.372Z,100418.73
2019-03-03T04:01:22.827Z,100407.91
2019-03-03T04:03:55.402Z,100410.14
2019-03-03T04:06:26.280Z,100408.19
2019-03-03T04:09:01.727Z,100413.47
2019-03-03T04:11:35.062Z,100416.80
2019-03-03T04:14:07.791Z,100401.88
2019-03-03T04:16:40.321Z,100397.27
2019-03-03T04:19:12.637Z,100388.66
2019-03-03T04:21:44.774Z,100384.62
2019-03-03T04:24:17.116Z,100378.77
2019-03-03T04:26:49.520Z,100384.62
2019-03-03T04:29:21.699Z,100380.77
2019-03-03T04:31:54.207Z,100372.73
2019-03-03T04:34:26.554Z,100371.48
2019-03-03T04:37:00.487Z,100371.94
2019-03-03T04:39:32.863Z,100364.22
2019-03-03T04:42:05.495Z,100365.28
2019-03-03T04:44:37.700Z,100374.06
2019-03-03T04:47:10.100Z,100377.66
2019-03-03T04:49:42.731Z,100379.39
2019-03-03T04:52:13.430Z,100387.60
2019-03-03T04:54:45.891Z,100375.13
2019-03-03T04:57:18.630Z,100379.48
2019-03-03T04:59:51.000Z,100370.38
2019-03-03T05:02:23.560Z,100366.73
2019-03-03T05:04:56.494Z,100359.76
2019-03-03T05:07:29.100Z,100367.17
2019-03-03T05:10:01.699Z,100368.50
2019-03-03T05:12:34.320Z,100368.84
2019-03-03T05:15:11.779Z,100353.08
2019-03-03T05:17:44.524Z,100360.35
2019-03-03T05:20:16.548Z,100359.89
2019-03-03T05:22:47.409Z,100354.92
2019-03-03T05:25:18.300Z,100348.82
2019-03-03T05:27:49.325Z,100348.05
2019-03-03T05:30:20.696Z,100341.63
2019-03-03T05:32:51.681Z,100347.30
2019-03-03T05:35:22.959Z,100331.28
2019-03-03T05:37:53.752Z,100337.53
2019-03-03T05:40:25.080Z,100330.98
2019-03-03T05:42:56.343Z,100323.66
2019-03-03T05:45:27.303Z,100319.91
2019-03-03T05:47:58.009Z,100324.77
2019-03-03T05:50:30.445Z,100322.80
2019-03-03T05:53:01.717Z,100325.10
2019-03-03T05:55:32.995Z,100324.30
2019-03-03T05:58:04.070Z,100319.43
2019-03-03T06:00:34.912Z,100319.75
2019-03-03T06:03:05.662Z,100320.44
2019-03-03T06:05:36.344Z,100319.64
2019-03-03T06:08:07.324Z,100315.17
2019-03-03T06:10:37.970Z,100309.13
2019-03-03T06:13:08.882Z,100315.17
2019-03-03T06:15:40.681Z,100314.08
2019-03-03T06:18:11.658Z,100314.59
2019-03-03T06:20:42.321Z,100311.50
2019-03-03T06:23:13.608Z,100320.12
2019-03-03T06:25:44.480Z,100315.77
2019-03-03T06:28:15.618Z,100311.30
2019-03-03T06:30:46.863Z,100302.27
2019-03-03T06:33:17.951Z,100300.68
2019-03-03T06:35:49.155Z,100291.65
2019-03-03T06:38:20.787Z,100293.94
2019-03-03T06:40:52.061Z,100290.16
2019-03-03T06:43:23.199Z,100286.96
2019-03-03T06:45:54.559Z,100285.98
2019-03-03T06:48:25.282Z,100276.22
2019-03-03T06:50:56.258Z,100275.94
2019-03-03T06:53:28.089Z,100262.62
2019-03-03T06:55:59.517Z,100266.09
2019-03-03T06:58:31.061Z,100262.93
2019-03-03T07:01:01.876Z,100269.47
2019-03-03T07:03:32.892Z,100271.14
2019-03-03T07:06:04.360Z,100281.73
2019-03-03T07:08:35.292Z,100276.77
2019-03-03T07:11:06.822Z,100268.81
2019-03-03T07:13:37.826Z,100272.28
2019-03-03T07:16:08.965Z,100267.30
2019-03-03T07:18:39.920Z,100253.48
2019-03-03T07:21:11.029Z,100245.11
2019-03-03T07:23:42.088Z,100244.31
2019-03-03T07:26:12.999Z,100236.12
2019-03-03T07:28:44.006Z,100232.80
2019-03-03T07:31:14.958Z,100228.78
2019-03-03T07:33:47.046Z,100241.95
2019-03-03T07:36:17.777Z,100253.41
2019-03-03T07:38:49.400Z,100247.09
2019-03-03T07:41:20.403Z,100243.80
2019-03-03T07:43:50.961Z,100238.52
2019-03-03T07:46:21.406Z,100243.95
2019-03-03T07:48:52.174Z,100245.23
2019-03-03T07:51:22.725Z,100251.25
2019-03-03T07:53:53.577Z,100247.36
2019-03-03T07:56:24.029Z,100245.54
2019-03-03T07:58:54.643Z,100240.95
2019-03-03T08:01:25.141Z,100240.39
2019-03-03T08:03:56.026Z,100245.92
2019-03-03T08:06:26.839Z,100246.28
2019-03-03T08:08:57.385Z,100232.47
2019-03-03T08:11:28.153Z,100233.41
2019-03-03T08:13:58.722Z,100231.75
2019-03-03T08:16:29.235Z,100226.58
2019-03-03T08:19:00.212Z,100223.22
2019-03-03T08:21:30.821Z,100203.80
2019-03-03T08:24:01.365Z,100206.89
2019-03-03T08:26:31.952Z,100219.52
2019-03-03T08:29:02.623Z,100215.66
2019-03-03T08:31:33.582Z,100213.88
2019-03-03T08:34:04.167Z,100209.91
2019-03-03T08:36:35.054Z,100202.84
2019-03-03T08:39:06.529Z,100200.11
2019-03-03T08:41:39.483Z,100194.84
2019-03-03T08:44:11.690Z,100191.11
2019-03-03T08:46:44.058Z,100189.89
2019-03-03T08:49:16.496Z,100184.01
2019-03-03T08:51:49.684Z,100185.30
2019-03-03T08:54:21.843Z,100188.90
2019-03-03T08:56:54.087Z,100186.30
2019-03-03T08:59:24.294Z,100174.11
2019-03-03T09:01:57.081Z,100176.02
2019-03-03T09:04:29.131Z,100169.31
2019-03-03T09:07:01.435Z,100171.94
2019-03-03T09:09:36.297Z,100159.73
2019-03-03T09:12:09.874Z,100152.97
2019-03-03T09:14:42.124Z,100159.70
2019-03-03T09:17:14.426Z,100157.72
2019-03-03T09:19:46.570Z,100160.81
2019-03-03T09:22:18.906Z,100164.35
2019-03-03T09:24:51.178Z,100160.88
2019-03-03T09:27:23.441Z,100165.33
2019-03-03T09:29:55.566Z,100154.11
2019-03-03T09:32:27.761Z,100160.33
2019-03-03T09:34:59.921Z,100155.37
2019-03-03T09:37:32.129Z,100159.41
2019-03-03T09:40:09.420Z,100152.23
2019-03-03T09:42:38.242Z,100143.95
2019-03-03T09:45:10.853Z,100132.68
2019-03-03T09:47:43.024Z,100131.85
2019-03-03T09:50:15.325Z,100130.13
2019-03-03T09:52:47.594Z,100134.94
2019-03-03T09:55:20.007Z,100136.70
2019-03-03T09:57:52.202Z,100125.79
2019-03-03T10:00:25.306Z,100124.13
2019-03-03T10:03:05.209Z,100120.12
2019-03-03T10:05:47.969Z,100118.00
2019-03-03T10:08:20.123Z,100119.60
2019-03-03T10:10:52.234Z,100119.44
2019-03-03T10:13:24.402Z,100109.08
2019-03-03T10:16:01.802Z,100110.75
2019-03-03T10:18:31.081Z,100100.63
2019-03-03T10:21:03.396Z,100096.44
2019-03-03T10:23:35.577Z,100096.56
2019-03-03T10:26:07.921Z,100100.05
2019-03-03T10:28:40.753Z,100099.09
2019-03-03T10:31:12.965Z,100098.25
2019-03-03T10:33:45.244Z,100100.81
2019-03-03T10:36:21.279Z,100107.73
2019-03-03T10:38:58.319Z,100111.63
2019-03-03T10:41:33.521Z,100109.45
2019-03-03T10:44:08.457Z,100109.96
2019-03-03T10:46:40.753Z,100104.00
2019-03-03T10:49:13.281Z,100100.30
2019-03-03T10:51:45.762Z,100093.00
2019-03-03T10:54:18.081Z,100093.12
2019-03-03T10:56:50.240Z,100094.97
2019-03-03T10:59:22.497Z,100079.53
2019-03-03T11:01:54.682Z,100066.59
2019-03-03T11:04:26.834Z,100077.13
2019-03-03T11:07:00.921Z,100059.56
2019-03-03T11:09:35.441Z,100058.55
2019-03-03T11:12:07.490Z,100064.53
2019-03-03T11:14:40.070Z,100044.89
2019-03-03T11:17:12.561Z,100053.52
2019-03-03T11:19:44.928Z,100046.86
2019-03-03T11:22:15.404Z,100048.92
2019-03-03T11:24:47.827Z,100040.45
2019-03-03T11:27:20.098Z,100041.17
2019-03-03T11:29:52.505Z,100028.89
2019-03-03T11:32:24.697Z,100023.63
2019-03-03T11:34:57.074Z,100015.98
2019-03-03T11:37:29.548Z,100024.83
2019-03-03T11:40:01.850Z,100022.64
2019-03-03T11:42:34.684Z,100001.11
2019-03-03T11:45:10.084Z,100008.83
2019-03-03T11:47:42.317Z,100020.95
2019-03-03T11:50:15.005Z,100013.94
2019-03-03T11:52:47.248Z,100021.23
2019-03-03T11:55:19.475Z,100016.87
2019-03-03T11:57:51.613Z,100025.81
2019-03-03T12:00:24.098Z,100009.57
2019-03-03T12:02:56.700Z,100012.53
2019-03-03T12:05:27.268Z,100014.89
2019-03-03T12:07:59.413Z,100012.78
2019-03-03T12:10:31.708Z,100007.67
2019-03-03T12:13:03.988Z,100002.95
2019-03-03T12:15:36.757Z,99998.30
2019-03-03T12:18:09.308Z,99997.59
2019-03-03T12:20:41.636Z,99987.36
2019-03-03T12:23:18.268Z,99989.72
2019-03-03T12:25:50.573Z,99988.52
2019-03-03T12:28:23.652Z,99984.73
2019-03-03T12:30:56.132Z,99989.70
2019-03-03T12:33:28.605Z,99975.67
2019-03-03T12:36:01.030Z,99993.19
2019-03-03T12:38:33.149Z,99984.87
2019-03-03T12:41:05.284Z,99987.09
2019-03-03T12:43:37.468Z,99974.92
2019-03-03T12:46:10.786Z,99983.20
2019-03-03T12:48:43.236Z,99973.66
2019-03-03T12:51:15.316Z,99974.95
2019-03-03T12:53:47.440Z,99977.95
2019-03-03T12:56:19.603Z,99978.34
2019-03-03T12:58:49.950Z,99979.27
2019-03-03T13:01:23.833Z,99980.17
2019-03-03T13:03:56.203Z,99976.75
2019-03-03T13:06:30.358Z,99980.66
2019-03-03T13:09:02.150Z,99977.63
2019-03-03T13:11:35.956Z,99974.53
2019-03-03T13:14:06.307Z,99967.00
2019-03-03T13:16:38.884Z,99973.88
2019-03-03T13:26:18.947Z,99972.47
2019-03-03T13:28:51.106Z,99974.94
2019-03-03T13:31:23.324Z,99980.25
2019-03-03T13:33:55.588Z,99974.27
2019-03-03T13:36:27.851Z,99977.03
2019-03-03T13:39:08.128Z,99971.73
2019-03-03T13:41:43.255Z,99981.73
2019-03-03T13:44:13.679Z,99979.83
2019-03-03T13:46:44.310Z,99981.20
2019-03-03T13:49:14.694Z,99980.33
2019-03-03T13:51:45.409Z,99977.38
2019-03-03T13:54:16.157Z,99984.60
2019-03-03T13:56:46.620Z,99979.63
2019-03-03T13:59:17.170Z,99982.02
2019-03-03T14:01:47.587Z,99980.10
2019-03-03T14:04:18.035Z,99977.08
2019-03-03T14:06:48.546Z,99971.25
2019-03-03T14:09:20.516Z,99965.86
2019-03-03T14:11:50.978Z,99964.09
2019-03-03T14:14:21.380Z,99962.80
2019-03-03T14:16:51.851Z,99970.02
2019-03-03T14:19:22.260Z,99971.31
2019-03-03T14:21:52.983Z,99962.38
2019-03-03T14:24:23.450Z,99972.09
2019-03-03T14:26:54.028Z,99968.48
2019-03-03T14:29:24.348Z,99958.58
2019-03-03T14:31:54.814Z,99956.58
2019-03-03T14:34:25.517Z,99963.37
2019-03-03T14:36:55.929Z,99961.73
2019-03-03T14:39:26.620Z,99962.07
2019-03-03T14:41:57.009Z,99966.34
2019-03-03T14:44:27.490Z,99962.48
2019-03-03T14:46:58.023Z,99967.98
2019-03-03T14:49:28.667Z,99968.03
2019-03-03T14:51:59.210Z,99961.66
2019-03-03T14:54:29.661Z,99963.13
2019-03-03T14:57:00.550Z,99959.17
2019-03-03T14:59:30.926Z,99957.80
2019-03-03T15:02:01.376Z,99949.53
2019-03-03T15:04:31.728Z,99952.22
2019-03-03T15:07:08.491Z,99952.22
2019-03-03T15:09:38.947Z,99947.81
2019-03-03T15:12:09.581Z,99952.02
2019-03-03T15:14:39.969Z,99948.48
2019-03-03T15:17:10.409Z,99942.79
2019-03-03T15:19:40.995Z,99944.97
2019-03-03T15:22:11.493Z,99947.52
2019-03-03T15:24:42.019Z,99943.62
2019-03-03T15:27:12.758Z,99940.19
2019-03-03T15:29:43.121Z,99941.36
2019-03-03T15:32:13.623Z,99939.43
2019-03-03T15:34:44.217Z,99936.33
2019-03-03T15:37:16.108Z,99943.45
2019-03-03T15:39:46.988Z,99942.36
2019-03-03T15:42:17.778Z,99929.32
2019-03-03T15:44:48.277Z,99942.70
2019-03-03T15:47:18.740Z,99934.91
2019-03-03T15:49:49.465Z,99940.02
2019-03-03T15:52:21.988Z,99932.59
2019-03-03T15:54:53.994Z,99931.84
2019-03-03T15:57:25.600Z,99931.84
2019-03-03T15:59:56.226Z,99931.59
2019-03-03T16:02:26.886Z,99928.53
2019-03-03T16:04:57.377Z,99937.63
2019-03-03T16:07:34.263Z,99921.44
2019-03-03T16:10:11.960Z,99926.47
2019-03-03T16:12:42.529Z,99923.45
2019-03-03T16:15:15.444Z,99928.23
2019-03-03T16:17:45.869Z,99923.33
2019-03-03T16:20:18.311Z,99920.73
2019-03-03T16:22:49.049Z,99924.92
2019-03-03T16:25:21.544Z,99916.49
2019-03-03T16:27:58.089Z,99914.66
2019-03-03T16:30:28.878Z,99911.80
2019-03-03T16:33:03.074Z,99916.67
2019-03-03T16:35:37.048Z,99911.17
2019-03-03T16:38:07.421Z,99915.88
2019-03-03T16:40:40.133Z,99908.50
2019-03-03T16:43:11.719Z,99917.25
2019-03-03T16:45:42.441Z,99913.35
2019-03-03T16:48:12.970Z,99909.37
2019-03-03T16:50:44.765Z,99905.77
2019-03-03T16:53:22.079Z,99905.48
2019-03-03T16:56:00.938Z,99906.02
2019-03-03T16:58:35.597Z,99902.50
2019-03-03T17:01:09.059Z,99908.87
2019-03-03T17:03:39.530Z,99903.17
2019-03-03T17:06:09.961Z,99898.86
2019-03-03T17:08:40.480Z,99898.81
2019-03-03T17:11:11.000Z,99903.47
2019-03-03T17:13:42.902Z,99899.98
2019-03-03T17:16:20.571Z,99892.94
2019-03-03T17:18:53.210Z,99894.73
2019-03-03T17:21:25.175Z,99895.13
2019-03-03T17:23:55.754Z,99902.12
2019-03-03T17:26:30.052Z,99891.64
2019-03-03T17:29:00.586Z,99895.67
2019-03-03T17:31:31.059Z,99892.27
2019-03-03T17:34:01.749Z,99888.00
2019-03-03T17:36:32.450Z,99889.00
2019-03-03T17:39:03.580Z,99887.58
2019-03-03T17:41:35.942Z,99892.86
2019-03-03T17:44:09.783Z,99893.07
2019-03-03T17:46:42.509Z,99889.13
2019-03-03T17:49:13.995Z,99886.99
2019-03-03T17:51:44.660Z,99883.43
2019-03-03T17:54:15.881Z,99884.81
2019-03-03T17:56:46.399Z,99877.98
2019-03-03T17:59:17.175Z,99882.21
2019-03-03T18:01:48.355Z,99867.33
2019-03-03T18:04:18.888Z,99877.23
2019-03-03T18:06:49.628Z,99859.95
2019-03-03T18:09:21.327Z,99861.72
2019-03-03T18:11:52.018Z,99857.36
2019-03-03T18:14:22.616Z,99856.39
2019-03-03T18:16:53.165Z,99849.06
2019-03-03T18:19:24.916Z,99837.38
2019-03-03T18:22:03.477Z,99839.39
2019-03-03T18:24:47.364Z,99835.91
2019-03-03T18:27:18.923Z,99841.94
2019-03-03T18:30:03.242Z,99836.25
2019-03-03T18:32:49.821Z,99833.31
2019-03-03T18:35:27.999Z,99834.27
2019-03-03T18:38:01.026Z,99832.55
2019-03-03T18:40:34.227Z,99820.91
2019-03-03T18:43:05.708Z,99825.98
2019-03-03T18:45:37.566Z,99827.86
2019-03-03T18:48:13.439Z,99820.02
2019-03-03T18:50:55.914Z,99819.27
2019-03-03T18:53:26.332Z,99815.66
2019-03-03T18:56:01.686Z,99814.78
2019-03-03T18:58:32.986Z,99810.05
2019-03-03T19:01:06.216Z,99807.38
2019-03-03T19:03:38.987Z,99806.58
2019-03-03T19:06:11.490Z,99804.39
2019-03-03T19:08:44.366Z,99798.23
2019-03-03T19:11:19.015Z,99791.41
2019-03-03T19:13:51.103Z,99782.58
2019-03-03T19:16:28.086Z,99781.69
2019-03-03T19:19:06.794Z,99786.09
2019-03-03T19:21:40.340Z,99785.25
2019-03-03T19:24:18.449Z,99787.38
2019-03-03T19:26:49.928Z,99792.63
2019-03-03T19:29:22.565Z,99787.89
2019-03-03T19:31:55.527Z,99790.56
2019-03-03T19:34:30.033Z,99786.59
2019-03-03T19:37:00.666Z,99787.21
2019-03-03T19:39:35.739Z,99780.22
2019-03-03T19:42:08.843Z,99779.00
2019-03-03T19:44:45.977Z,99776.81
2019-03-03T19:47:42.927Z,99772.42
2019-03-03T19:50:34.295Z,99766.81
2019-03-03T19:53:22.260Z,99763.03
2019-03-03T19:56:21.174Z,99767.42
2019-03-03T19:59:09.617Z,99761.73
2019-03-03T20:02:06.289Z,99763.03
2019-03-03T20:05:19.587Z,99751.30
2019-03-03T20:07:41.433Z,99755.12
2019-03-03T20:10:18.464Z,99761.69
2019-03-03T20:12:50.456Z,99758.67
2019-03-03T20:15:43.220Z,99751.22
2019-03-03T20:18:21.967Z,99753.48
2019-03-03T20:20:53.668Z,99743.55
2019-03-03T20:23:24.656Z,99753.31
2019-03-03T20:25:56.471Z,99745.52
2019-03-03T20:28:27.611Z,99746.74
2019-03-03T20:30:59.878Z,99746.02
2019-03-03T20:33:31.199Z,99740.33
2019-03-03T20:36:02.467Z,99744.22
2019-03-03T20:38:33.682Z,99745.02
2019-03-03T20:41:05.105Z,99744.14
2019-03-03T20:43:36.033Z,99739.48
2019-03-03T20:46:20.144Z,99743.22
2019-03-03T20:49:02.462Z,99733.33
2019-03-03T20:51:40.430Z,99738.91
2019-03-03T20:54:14.835Z,99740.25
2019-03-03T20:56:47.353Z,99728.14
2019-03-03T20:59:21.028Z,99730.62
2019-03-03T21:01:53.072Z,99721.52
2019-03-03T21:04:27.871Z,99715.03
2019-03-03T21:06:59.871Z,99706.47
2019-03-03T21:09:31.071Z,99710.33
2019-03-03T21:12:07.632Z,99709.45
2019-03-03T21:14:45.045Z,99710.33
2019-03-03T21:17:29.029Z,99699.94
2019-03-03T21:20:25.503Z,99703.30
2019-03-03T21:23:04.429Z,99696.46
2019-03-03T21:25:37.709Z,99694.78
2019-03-03T21:28:09.257Z,99686.95
2019-03-03T21:30:41.079Z,99688.17
2019-03-03T21:33:14.016Z,99685.58
2019-03-03T21:35:46.729Z,99683.05
2019-03-03T21:38:17.836Z,99677.97
2019-03-03T21:40:49.788Z,99667.05
2019-03-03T21:43:21.060Z,99668.80
2019-03-03T21:46:06.073Z,99671.41
2019-03-03T21:48:43.477Z,99670.11
2019-03-03T21:51:15.234Z,99664.14
2019-03-03T21:53:46.898Z,99661.09
2019-03-03T21:56:19.898Z,99662.31
2019-03-03T21:58:52.435Z,99657.53
2019-03-03T22:01:24.734Z,99653.71
2019-03-03T22:03:56.155Z,99651.16
2019-03-03T22:06:28.856Z,99654.63
2019-03-03T22:09:00.919Z,99651.50
2019-03-03T22:11:33.702Z,99648.52
2019-03-03T22:14:05.734Z,99639.88
2019-03-03T22:16:37.779Z,99647.98
2019-03-03T22:19:09.324Z,99637.94
2019-03-03T22:21:40.835Z,99643.70
2019-03-03T22:24:12.940Z,99631.63
2019-03-03T22:26:44.390Z,99637.63
2019-03-03T22:29:16.455Z,99639.42
2019-03-03T22:31:47.429Z,99637.70
2019-03-03T22:34:18.797Z,99629.11
2019-03-03T22:36:51.423Z,99623.84
2019-03-03T22:39:23.670Z,99626.52
2019-03-03T22:41:56.081Z,99627.77
2019-03-03T22:44:29.720Z,99622.16
2019-03-03T22:47:01.844Z,99618.69
2019-03-03T22:49:34.559Z,99620.55
2019-03-03T22:52:05.914Z,99613.14
2019-03-03T22:54:37.357Z,99610.01
2019-03-03T22:57:08.920Z,99600.50
2019-03-03T22:59:40.366Z,99606.57
2019-03-03T23:02:11.199Z,99604.08
2019-03-03T23:04:45.759Z,99600.53
2019-03-03T23:07:21.036Z,99597.13
2019-03-03T23:09:56.264Z,99593.16
2019-03-03T23:12:31.795Z,99591.06
2019-03-03T23:15:06.155Z,99591.06
2019-03-03T23:17:40.914Z,99590.63
2019-03-03T23:20:13.714Z,99587.16
2019-03-03T23:22:48.035Z,99579.72
2019-03-03T23:25:22.754Z,99580.28
2019-03-03T23:27:54.955Z,99576.27
2019-03-03T23:30:26.955Z,99575.51
2019-03-03T23:32:58.194Z,99571.27
2019-03-03T23:35:29.755Z,99571.64
2019-03-03T23:38:01.555Z,99572.59
2019-03-03T23:40:33.113Z,99574.42
2019-03-03T23:43:04.822Z,99567.05
2019-03-03T23:45:36.551Z,99554.94
2019-03-03T23:48:08.431Z,99556.55
2019-03-03T23:50:40.950Z,99563.08
2019-03-03T23:53:12.689Z,99562.31
2019-03-03T23:55:44.532Z,99554.94
2019-03-03T23:58:15.714Z,99554.48
